Reno, Minnesota
Current Conditions -  °F | °C
As of 10:53 AM on Friday 24 Oct 2014 (Local Time) from KLSE Reporting Station
Haze Haze  
Wind Chill: 55°   Ceiling: 500
Heat Index: 55°   Visibility: 6mi
Dew Point: 52°   Wind: 9mph
Humidity: 89%   Direction: 170°S
Pressure: 29.98"   Gusts: NA
Location:  43.6451°N, 91.3164°W
Report Text: KLSE 241553Z 17008KT 6SM BR OVC005 13/11 A2998 RMK AO2 SLP153 T01280111
Loading
Personal Weather Stations






























Interactive Weather Map
Tropical Storm Tracking
New forecast layout! Learn more

10-Day Weather Forecast

Advertisements
Track Severe Weather on mobile